createdAt,value
2019-03-30T00:01:54.935Z,6.93
2019-03-30T00:04:23.471Z,7.50
2019-03-30T00:06:51.971Z,7.00
2019-03-30T00:09:20.495Z,7.43
2019-03-30T00:11:49.046Z,6.73
2019-03-30T00:14:17.514Z,7.40
2019-03-30T00:16:46.047Z,6.93
2019-03-30T00:19:14.586Z,6.57
2019-03-30T00:21:43.139Z,7.33
2019-03-30T00:24:11.631Z,7.20
2019-03-30T00:26:59.438Z,7.57
2019-03-30T00:29:27.991Z,7.83
2019-03-30T00:31:56.452Z,7.43
2019-03-30T00:34:24.940Z,7.17
2019-03-30T00:36:53.403Z,7.67
2019-03-30T00:39:21.891Z,7.10
2019-03-30T00:41:50.379Z,7.90
2019-03-30T00:44:18.930Z,8.00
2019-03-30T00:46:47.399Z,7.53
2019-03-30T00:49:15.855Z,7.67
2019-03-30T00:51:44.344Z,7.97
2019-03-30T00:54:12.978Z,8.23
2019-03-30T00:56:41.535Z,7.70
2019-03-30T00:59:10.013Z,7.73
2019-03-30T01:01:38.572Z,7.97
2019-03-30T01:04:07.035Z,7.70
2019-03-30T01:06:35.587Z,8.23
2019-03-30T01:09:05.986Z,8.00
2019-03-30T01:11:34.514Z,8.00
2019-03-30T01:14:03.008Z,8.13
2019-03-30T01:16:31.571Z,8.23
2019-03-30T01:19:00.060Z,7.83
2019-03-30T01:21:28.522Z,8.03
2019-03-30T01:23:57.051Z,7.93
2019-03-30T01:26:25.606Z,7.57
2019-03-30T01:28:54.167Z,8.60
2019-03-30T01:31:22.722Z,8.20
2019-03-30T01:33:51.186Z,7.80
2019-03-30T01:36:19.742Z,7.83
2019-03-30T01:38:48.208Z,8.10
2019-03-30T01:41:16.690Z,7.90
2019-03-30T01:43:45.158Z,7.97
2019-03-30T01:46:13.719Z,8.07
2019-03-30T01:48:42.174Z,8.23
2019-03-30T01:51:10.735Z,8.07
2019-03-30T01:53:39.199Z,8.33
2019-03-30T01:56:07.694Z,8.07
2019-03-30T01:58:36.159Z,8.10
2019-03-30T02:01:05.087Z,8.47
2019-03-30T02:03:33.590Z,8.87
2019-03-30T02:06:02.101Z,8.73
2019-03-30T02:08:30.661Z,8.57
2019-03-30T02:10:59.315Z,7.97
2019-03-30T02:13:27.779Z,8.23
2019-03-30T02:15:56.242Z,8.67
2019-03-30T02:18:24.727Z,8.87
2019-03-30T02:20:53.190Z,9.27
2019-03-30T02:23:21.762Z,8.30
2019-03-30T02:25:50.363Z,9.27
2019-03-30T02:28:18.920Z,9.07
2019-03-30T02:30:47.388Z,8.77
2019-03-30T02:33:15.852Z,8.83
2019-03-30T02:35:44.428Z,8.37
2019-03-30T02:38:12.951Z,8.63
2019-03-30T02:40:41.440Z,8.40
2019-03-30T02:43:10.050Z,8.60
2019-03-30T02:45:38.540Z,8.67
2019-03-30T02:48:26.410Z,8.63
2019-03-30T02:50:54.895Z,8.20
2019-03-30T02:53:23.451Z,9.00
2019-03-30T02:55:52.002Z,7.97
2019-03-30T02:58:20.545Z,8.33
2019-03-30T03:00:49.121Z,9.13
2019-03-30T03:03:17.710Z,9.13
2019-03-30T03:05:46.438Z,7.97
2019-03-30T03:08:14.929Z,8.73
2019-03-30T03:10:43.496Z,8.33
2019-03-30T03:13:12.027Z,8.47
2019-03-30T03:15:40.567Z,8.53
2019-03-30T03:18:09.060Z,8.67
2019-03-30T03:20:37.594Z,8.97
2019-03-30T03:23:06.151Z,8.97
2019-03-30T03:25:34.993Z,7.70
2019-03-30T03:28:03.525Z,8.60
2019-03-30T03:30:32.011Z,8.53
2019-03-30T03:33:00.649Z,9.43
2019-03-30T03:35:29.176Z,8.90
2019-03-30T03:37:57.743Z,8.80
2019-03-30T03:40:26.271Z,9.30
2019-03-30T03:42:55.095Z,9.10
2019-03-30T03:45:23.692Z,9.23
2019-03-30T03:47:52.172Z,9.20
2019-03-30T03:50:43.692Z,8.80
2019-03-30T03:53:14.477Z,9.77
2019-03-30T03:55:43.464Z,9.60
2019-03-30T03:58:12.262Z,9.63
2019-03-30T04:00:41.460Z,9.10
2019-03-30T04:03:11.826Z,9.47
2019-03-30T04:05:43.027Z,9.60
2019-03-30T04:08:13.413Z,9.77
2019-03-30T04:10:43.578Z,9.80
2019-03-30T04:13:14.289Z,9.80
2019-03-30T04:15:42.920Z,10.00
2019-03-30T04:18:11.959Z,10.33
2019-03-30T04:20:40.504Z,10.07
2019-03-30T04:23:09.064Z,9.83
2019-03-30T04:25:37.534Z,9.90
2019-03-30T04:28:06.096Z,9.50
2019-03-30T04:30:34.698Z,10.17
2019-03-30T04:33:03.168Z,10.07
2019-03-30T04:35:31.724Z,9.50
2019-03-30T04:38:00.283Z,9.60
2019-03-30T04:40:28.843Z,10.40
2019-03-30T04:42:58.854Z,10.27
2019-03-30T04:45:27.412Z,9.60
2019-03-30T04:47:55.943Z,10.50
2019-03-30T04:50:24.509Z,10.23
2019-03-30T04:52:53.042Z,9.87
2019-03-30T04:55:21.538Z,10.87
2019-03-30T04:57:50.103Z,9.40
2019-03-30T05:00:18.738Z,9.87
2019-03-30T05:02:47.202Z,10.87
2019-03-30T05:05:15.692Z,10.73
2019-03-30T05:07:44.159Z,10.70
2019-03-30T05:10:12.890Z,10.30
2019-03-30T05:12:41.360Z,11.33
2019-03-30T05:15:10.367Z,9.90
2019-03-30T05:17:47.385Z,10.57
2019-03-30T05:20:09.960Z,10.17
2019-03-30T05:22:38.432Z,10.63
2019-03-30T05:25:07.136Z,10.30
2019-03-30T05:27:35.790Z,11.07
2019-03-30T05:30:06.827Z,10.80
2019-03-30T05:32:35.360Z,10.57
2019-03-30T05:35:05.901Z,10.83
2019-03-30T05:37:34.359Z,10.50
2019-03-30T05:40:02.993Z,10.23
2019-03-30T05:42:31.484Z,10.73
2019-03-30T05:44:59.943Z,9.90
2019-03-30T05:47:28.430Z,10.03
2019-03-30T05:49:56.917Z,9.60
2019-03-30T05:52:26.743Z,11.03
2019-03-30T05:54:55.615Z,10.13
2019-03-30T05:57:24.151Z,9.73
2019-03-30T05:59:55.654Z,9.90
2019-03-30T06:02:22.915Z,9.00
2019-03-30T06:04:51.474Z,9.70
2019-03-30T06:07:19.938Z,9.30
2019-03-30T06:09:48.498Z,9.53
2019-03-30T06:12:16.958Z,8.80
2019-03-30T06:14:46.026Z,8.47
2019-03-30T06:17:14.557Z,8.77
2019-03-30T06:19:43.042Z,8.60
2019-03-30T06:22:11.611Z,8.30
2019-03-30T06:24:40.210Z,8.57
2019-03-30T06:27:08.791Z,8.50
2019-03-30T06:29:37.251Z,8.30
2019-03-30T06:32:05.737Z,7.67
2019-03-30T06:34:34.371Z,8.00
2019-03-30T06:37:02.867Z,7.93
2019-03-30T06:39:31.415Z,7.50
2019-03-30T06:41:59.974Z,8.13
2019-03-30T06:44:28.443Z,8.30
2019-03-30T06:46:56.938Z,7.93
2019-03-30T06:49:25.421Z,8.17
2019-03-30T06:51:53.988Z,8.13
2019-03-30T06:54:22.456Z,9.23
2019-03-30T06:56:50.937Z,8.53
2019-03-30T06:59:19.514Z,8.53
2019-03-30T07:01:48.291Z,8.30
2019-03-30T07:04:17.216Z,8.80
2019-03-30T07:06:46.723Z,8.93
2019-03-30T07:09:17.609Z,8.40
2019-03-30T07:11:48.251Z,8.83
2019-03-30T07:14:16.882Z,8.63
2019-03-30T07:16:47.358Z,9.23
2019-03-30T07:19:15.919Z,9.40
2019-03-30T07:21:44.459Z,9.40
2019-03-30T07:24:12.926Z,8.93
2019-03-30T07:26:41.427Z,9.50
2019-03-30T07:29:09.970Z,8.97
2019-03-30T07:31:38.465Z,9.10
2019-03-30T07:34:06.999Z,9.10
2019-03-30T07:36:35.463Z,10.13
2019-03-30T07:39:04.800Z,9.47
2019-03-30T07:41:33.346Z,9.93
2019-03-30T07:44:01.826Z,9.30
2019-03-30T07:46:30.290Z,9.35
2019-03-30T07:48:58.764Z,10.32
2019-03-30T07:51:27.332Z,9.60
2019-03-30T07:53:55.831Z,9.80
2019-03-30T07:56:24.299Z,9.13
2019-03-30T07:58:52.802Z,9.95
2019-03-30T08:01:21.340Z,9.10
2019-03-30T08:03:49.916Z,9.70
2019-03-30T08:06:18.384Z,9.93
2019-03-30T08:08:46.968Z,9.53
2019-03-30T08:11:15.435Z,10.08
2019-03-30T08:13:43.967Z,9.28
2019-03-30T08:16:12.599Z,9.88
2019-03-30T08:18:41.066Z,9.60
2019-03-30T08:21:09.631Z,11.18
2019-03-30T08:23:40.627Z,10.65
2019-03-30T08:26:08.478Z,9.90
2019-03-30T08:28:36.951Z,10.88
2019-03-30T08:31:05.494Z,10.32
2019-03-30T08:33:33.991Z,10.90
2019-03-30T08:36:02.471Z,10.80
2019-03-30T08:38:30.978Z,11.18
2019-03-30T08:40:59.515Z,11.38
2019-03-30T08:43:28.011Z,11.70
2019-03-30T08:45:56.487Z,12.07
2019-03-30T08:48:25.133Z,13.25
2019-03-30T08:50:53.674Z,11.25
2019-03-30T08:53:22.255Z,12.07
2019-03-30T08:55:50.727Z,13.10
2019-03-30T08:58:19.200Z,13.10
2019-03-30T09:00:47.841Z,13.28
2019-03-30T09:03:16.451Z,13.62
2019-03-30T09:05:44.963Z,12.95
2019-03-30T09:08:13.433Z,13.20
2019-03-30T09:10:42.042Z,12.20
2019-03-30T09:13:10.635Z,13.75
2019-03-30T09:15:39.200Z,14.95
2019-03-30T09:18:07.709Z,14.20
2019-03-30T09:20:36.316Z,14.38
2019-03-30T09:23:04.860Z,14.83
2019-03-30T09:25:33.430Z,13.65
2019-03-30T09:28:02.803Z,14.45
2019-03-30T09:30:31.439Z,15.18
2019-03-30T09:33:00.031Z,14.25
2019-03-30T09:35:28.642Z,14.33
2019-03-30T09:37:57.163Z,14.95
2019-03-30T09:40:25.705Z,14.40
2019-03-30T09:42:54.252Z,14.53
2019-03-30T09:45:22.764Z,14.98
2019-03-30T09:47:51.242Z,15.35
2019-03-30T09:50:19.790Z,14.55
2019-03-30T09:52:48.354Z,14.93
2019-03-30T09:55:16.847Z,15.32
2019-03-30T09:57:45.322Z,15.30
2019-03-30T10:00:14.409Z,17.20
2019-03-30T10:02:42.982Z,15.85
2019-03-30T10:05:11.666Z,15.35
2019-03-30T10:07:40.159Z,17.30
2019-03-30T10:10:08.867Z,17.95
2019-03-30T10:12:37.378Z,16.37
2019-03-30T10:15:06.878Z,15.75
2019-03-30T10:17:35.422Z,15.98
2019-03-30T10:20:06.624Z,16.30
2019-03-30T10:22:35.167Z,15.63
2019-03-30T10:25:05.102Z,15.63
2019-03-30T10:27:33.616Z,16.17
2019-03-30T10:30:02.303Z,16.23
2019-03-30T10:32:30.771Z,15.70
2019-03-30T10:34:59.266Z,16.40
2019-03-30T10:37:27.739Z,16.57
2019-03-30T10:39:56.232Z,15.98
2019-03-30T10:42:24.855Z,16.32
2019-03-30T10:44:53.419Z,16.17
2019-03-30T10:47:21.886Z,15.43
2019-03-30T10:49:50.399Z,15.65
2019-03-30T10:52:18.945Z,16.07
2019-03-30T10:54:52.783Z,15.48
2019-03-30T10:57:17.790Z,15.83
2019-03-30T10:59:46.262Z,16.40
2019-03-30T11:02:14.834Z,15.45
2019-03-30T11:04:43.327Z,15.83
2019-03-30T11:07:11.826Z,15.03
2019-03-30T11:09:40.306Z,15.83
2019-03-30T11:12:08.879Z,14.93
2019-03-30T11:14:37.524Z,14.98
2019-03-30T11:17:06.105Z,14.15
2019-03-30T11:19:34.574Z,14.43
2019-03-30T11:22:03.559Z,12.88
2019-03-30T11:24:32.274Z,13.15
2019-03-30T11:27:00.774Z,14.43
2019-03-30T11:29:29.323Z,14.73
2019-03-30T11:31:57.890Z,14.28
2019-03-30T11:34:26.393Z,14.13
2019-03-30T11:36:54.941Z,13.95
2019-03-30T11:39:23.559Z,14.95
2019-03-30T11:41:52.140Z,14.38
2019-03-30T11:44:20.706Z,12.88
2019-03-30T11:46:49.253Z,13.93
2019-03-30T11:49:17.799Z,13.50
2019-03-30T11:51:46.440Z,14.47
2019-03-30T11:54:15.010Z,14.38
2019-03-30T11:56:43.479Z,14.00
2019-03-30T11:59:12.000Z,14.63
2019-03-30T12:01:40.545Z,14.90
2019-03-30T12:04:09.081Z,14.73
2019-03-30T12:06:37.572Z,13.50
2019-03-30T12:09:10.599Z,14.98
2019-03-30T12:11:39.098Z,15.35
2019-03-30T12:14:07.575Z,13.90
2019-03-30T12:16:36.070Z,14.65
2019-03-30T12:19:04.754Z,14.90
2019-03-30T12:21:33.248Z,14.80
2019-03-30T12:24:01.876Z,14.95
2019-03-30T12:26:30.446Z,15.67
2019-03-30T12:28:58.947Z,14.73
2019-03-30T12:31:27.490Z,14.77
2019-03-30T12:33:56.059Z,13.87
2019-03-30T12:36:24.531Z,12.73
2019-03-30T12:38:53.030Z,12.43
2019-03-30T12:41:21.602Z,13.77
2019-03-30T12:43:50.146Z,11.93
2019-03-30T12:46:18.758Z,10.50
2019-03-30T12:48:47.338Z,10.53
2019-03-30T12:51:15.903Z,10.93
2019-03-30T12:53:50.344Z,10.43
2019-03-30T12:56:14.862Z,10.67
2019-03-30T12:58:43.663Z,10.43
2019-03-30T13:01:15.467Z,11.57
2019-03-30T13:03:42.403Z,11.73
2019-03-30T13:06:10.962Z,10.10
2019-03-30T13:08:39.465Z,11.07
2019-03-30T13:11:08.034Z,11.73
2019-03-30T13:13:36.574Z,12.23
2019-03-30T13:16:05.042Z,11.27
2019-03-30T13:18:33.547Z,15.03
2019-03-30T13:21:02.039Z,14.67
2019-03-30T13:23:30.538Z,12.53
2019-03-30T13:26:03.817Z,11.90
2019-03-30T13:28:29.227Z,13.77
2019-03-30T13:30:57.694Z,11.40
2019-03-30T13:33:26.194Z,10.63
2019-03-30T13:35:54.759Z,12.37
2019-03-30T13:38:25.733Z,11.90
2019-03-30T13:40:53.592Z,11.10
2019-03-30T13:43:22.083Z,11.13
2019-03-30T13:45:50.566Z,10.50
2019-03-30T13:48:19.131Z,13.13
2019-03-30T13:50:47.622Z,12.03
2019-03-30T13:53:16.163Z,11.03
2019-03-30T13:55:44.655Z,8.67
2019-03-30T13:58:13.195Z,8.00
2019-03-30T14:00:41.684Z,8.53
2019-03-30T14:03:10.179Z,8.37
2019-03-30T14:05:38.747Z,8.73
2019-03-30T14:08:07.362Z,8.07
2019-03-30T14:10:38.866Z,9.20
2019-03-30T14:13:06.055Z,9.67
2019-03-30T14:15:34.546Z,8.93
2019-03-30T14:18:03.036Z,9.17
2019-03-30T14:20:31.516Z,8.27
2019-03-30T14:23:00.116Z,9.70
2019-03-30T14:25:28.611Z,8.90
2019-03-30T14:27:57.149Z,8.83
2019-03-30T14:30:25.712Z,8.47
2019-03-30T14:32:54.196Z,6.50
2019-03-30T14:35:22.756Z,6.30
2019-03-30T14:37:51.223Z,3.90
2019-03-30T14:40:19.714Z,4.00
2019-03-30T14:42:48.215Z,4.00
2019-03-30T14:45:16.976Z,6.97
2019-03-30T14:47:45.438Z,3.80
2019-03-30T14:50:14.080Z,4.97
2019-03-30T14:52:42.547Z,3.77
2019-03-30T14:55:11.342Z,3.60
2019-03-30T14:57:39.900Z,3.40
2019-03-30T15:00:10.496Z,3.90
2019-03-30T15:02:39.118Z,4.40
2019-03-30T15:05:08.756Z,3.90
2019-03-30T15:07:37.346Z,3.90
2019-03-30T15:10:08.385Z,4.50
2019-03-30T15:12:37.789Z,4.43
2019-03-30T15:15:10.254Z,4.13
2019-03-30T15:17:40.665Z,4.37
2019-03-30T15:20:12.012Z,4.47
2019-03-30T15:22:40.549Z,4.40
2019-03-30T15:25:10.142Z,3.90
2019-03-30T15:27:38.702Z,3.90
2019-03-30T15:30:07.898Z,4.20
2019-03-30T15:32:36.443Z,4.40
2019-03-30T15:35:07.039Z,4.70
2019-03-30T15:37:35.498Z,5.60
2019-03-30T15:40:07.666Z,4.90
2019-03-30T15:42:39.707Z,5.27
2019-03-30T15:45:08.446Z,4.07
2019-03-30T15:47:36.910Z,3.97
2019-03-30T15:50:07.296Z,4.97
2019-03-30T15:52:35.868Z,7.30
2019-03-30T15:55:06.456Z,4.20
2019-03-30T15:57:35.952Z,4.40
2019-03-30T16:00:10.055Z,9.93
2019-03-30T16:02:38.885Z,3.30
2019-03-30T16:05:07.782Z,3.53
2019-03-30T16:07:36.315Z,3.20
2019-03-30T16:10:05.839Z,5.33
2019-03-30T16:12:34.334Z,3.33
2019-03-30T16:15:03.738Z,2.97
2019-03-30T16:17:32.322Z,3.13
2019-03-30T16:20:00.888Z,3.57
2019-03-30T16:22:29.355Z,3.50
2019-03-30T16:24:57.839Z,3.10
2019-03-30T16:27:29.076Z,3.13
2019-03-30T16:29:58.581Z,3.00
2019-03-30T16:32:27.019Z,3.37
2019-03-30T16:34:55.508Z,3.27
2019-03-30T16:37:24.042Z,3.00
2019-03-30T16:39:52.546Z,3.37
2019-03-30T16:42:21.011Z,3.20
2019-03-30T16:44:49.586Z,3.37
2019-03-30T16:47:18.053Z,3.10
2019-03-30T16:49:46.539Z,3.50
2019-03-30T16:52:15.362Z,3.70
2019-03-30T16:54:43.836Z,3.20
2019-03-30T16:57:12.398Z,3.10
2019-03-30T16:59:40.863Z,4.00
2019-03-30T17:02:09.351Z,2.93
2019-03-30T17:04:37.811Z,3.53
2019-03-30T17:07:06.302Z,3.03
2019-03-30T17:09:34.762Z,3.23
2019-03-30T17:12:03.394Z,3.77
2019-03-30T17:14:31.883Z,3.80
2019-03-30T17:17:00.516Z,4.60
2019-03-30T17:19:48.318Z,3.90
2019-03-30T17:22:16.806Z,3.50
2019-03-30T17:24:45.299Z,4.30
2019-03-30T17:27:13.859Z,3.63
2019-03-30T17:29:42.354Z,4.00
2019-03-30T17:32:10.907Z,3.43
2019-03-30T17:34:39.562Z,3.80
2019-03-30T17:37:08.055Z,3.43
2019-03-30T17:39:36.563Z,3.30
2019-03-30T17:42:05.248Z,3.90
2019-03-30T17:44:34.106Z,4.60
2019-03-30T17:47:02.707Z,3.83
2019-03-30T17:49:31.190Z,3.40
2019-03-30T17:51:59.727Z,3.00
2019-03-30T17:54:28.242Z,3.27
2019-03-30T17:56:56.782Z,3.70
2019-03-30T17:59:25.318Z,4.30
2019-03-30T18:01:54.029Z,3.50
2019-03-30T18:04:22.570Z,4.37
2019-03-30T18:06:51.059Z,12.93
2019-03-30T18:09:19.543Z,12.70
2019-03-30T18:11:48.038Z,8.37
2019-03-30T18:14:16.522Z,8.90
2019-03-30T18:16:45.015Z,13.07
2019-03-30T18:19:13.559Z,6.87
2019-03-30T18:21:42.031Z,6.30
2019-03-30T18:24:10.511Z,4.80
2019-03-30T18:26:39.001Z,7.63
2019-03-30T18:29:07.467Z,6.60
2019-03-30T18:31:36.100Z,7.93
2019-03-30T18:34:04.798Z,6.43
2019-03-30T18:36:35.037Z,7.13
2019-03-30T18:39:09.789Z,4.10
2019-03-30T18:41:35.010Z,4.20
2019-03-30T18:44:03.546Z,4.20
2019-03-30T18:46:32.008Z,5.17
2019-03-30T18:49:00.587Z,4.70
2019-03-30T18:51:29.791Z,4.80
2019-03-30T18:53:58.274Z,7.83
2019-03-30T18:56:28.043Z,8.23
2019-03-30T18:58:56.683Z,5.67
2019-03-30T19:01:25.248Z,5.30
2019-03-30T19:03:53.810Z,4.50
2019-03-30T19:06:22.445Z,3.63
2019-03-30T19:08:51.006Z,4.40
2019-03-30T19:11:19.471Z,5.27
2019-03-30T19:13:51.289Z,4.87
2019-03-30T19:16:18.243Z,8.07
2019-03-30T19:18:46.740Z,5.10
2019-03-30T19:21:15.304Z,4.90
2019-03-30T19:23:43.838Z,5.30
2019-03-30T19:26:12.334Z,6.17
2019-03-30T19:28:55.275Z,6.03
2019-03-30T19:31:11.070Z,6.83
2019-03-30T19:33:39.559Z,14.43
2019-03-30T19:36:10.009Z,12.33
2019-03-30T19:38:38.322Z,10.83
2019-03-30T19:41:06.788Z,8.53
2019-03-30T19:43:35.282Z,7.80
2019-03-30T19:46:04.465Z,7.40
2019-03-30T19:48:36.846Z,8.20
2019-03-30T19:51:04.147Z,8.93
2019-03-30T19:53:32.651Z,10.23
2019-03-30T19:56:01.118Z,11.13
2019-03-30T19:58:29.691Z,11.37
2019-03-30T20:00:58.370Z,12.90
2019-03-30T20:03:26.945Z,14.07
2019-03-30T20:05:55.698Z,13.77
2019-03-30T20:08:24.240Z,13.97
2019-03-30T20:10:52.706Z,14.43
2019-03-30T20:13:21.305Z,17.53
2019-03-30T20:15:49.843Z,14.63
2019-03-30T20:18:18.346Z,16.30
2019-03-30T20:20:46.814Z,18.10
2019-03-30T20:23:15.311Z,17.63
2019-03-30T20:25:43.775Z,18.83
2019-03-30T20:28:12.419Z,17.80
2019-03-30T20:30:40.915Z,20.67
2019-03-30T20:33:09.415Z,20.23
2019-03-30T20:35:38.026Z,13.90
2019-03-30T20:38:06.522Z,11.63
2019-03-30T20:40:35.095Z,14.20
2019-03-30T20:43:03.567Z,14.33
2019-03-30T20:45:32.131Z,13.57
2019-03-30T20:48:00.747Z,12.77
2019-03-30T20:50:29.242Z,12.57
2019-03-30T20:52:57.727Z,12.97
2019-03-30T20:55:26.290Z,13.50
2019-03-30T20:57:54.994Z,12.23
2019-03-30T21:00:23.563Z,11.17
2019-03-30T21:02:52.054Z,11.13
2019-03-30T21:05:20.676Z,12.40
2019-03-30T21:07:49.259Z,11.87
2019-03-30T21:10:18.167Z,12.20
2019-03-30T21:12:46.743Z,11.67
2019-03-30T21:15:15.392Z,11.77
2019-03-30T21:17:43.939Z,13.00
2019-03-30T21:20:12.746Z,12.73
2019-03-30T21:22:41.243Z,13.00
2019-03-30T21:25:09.951Z,13.10
2019-03-30T21:27:38.523Z,13.13
2019-03-30T21:30:09.000Z,12.43
2019-03-30T21:32:37.490Z,12.67
2019-03-30T21:35:09.142Z,12.93
2019-03-30T21:37:37.643Z,13.10
2019-03-30T21:40:06.747Z,11.33
2019-03-30T21:42:35.285Z,12.17
2019-03-30T21:45:05.787Z,13.40
2019-03-30T21:47:34.279Z,12.03
2019-03-30T21:50:02.847Z,11.97
2019-03-30T21:52:31.390Z,11.93
2019-03-30T21:54:59.883Z,12.97
2019-03-30T21:57:28.359Z,12.77
2019-03-30T22:00:09.017Z,12.50
2019-03-30T22:02:27.118Z,12.00
2019-03-30T22:04:55.687Z,13.33
2019-03-30T22:07:24.767Z,11.47
2019-03-30T22:09:53.500Z,10.77
2019-03-30T22:12:21.977Z,10.17
2019-03-30T22:14:50.551Z,9.90
2019-03-30T22:17:19.078Z,10.57
2019-03-30T22:19:47.625Z,10.50
2019-03-30T22:22:16.114Z,10.93
2019-03-30T22:24:44.611Z,11.80
2019-03-30T22:27:13.142Z,12.00
2019-03-30T22:29:41.638Z,11.60
2019-03-30T22:32:10.112Z,11.27
2019-03-30T22:34:38.675Z,11.60
2019-03-30T22:37:07.235Z,11.57
2019-03-30T22:39:35.706Z,11.70
2019-03-30T22:42:04.260Z,12.70
2019-03-30T22:44:32.726Z,12.47
2019-03-30T22:47:01.218Z,11.80
2019-03-30T22:49:29.678Z,12.00
2019-03-30T22:51:58.228Z,10.97
2019-03-30T22:54:26.723Z,10.83
2019-03-30T22:56:55.219Z,12.17
2019-03-30T22:59:23.681Z,11.07
2019-03-30T23:01:52.480Z,10.10
2019-03-30T23:04:21.018Z,11.37
2019-03-30T23:06:49.598Z,10.33
2019-03-30T23:09:18.134Z,11.00
2019-03-30T23:11:46.676Z,10.50
2019-03-30T23:14:15.158Z,10.43
2019-03-30T23:16:43.694Z,10.40
2019-03-30T23:19:12.258Z,10.73
2019-03-30T23:21:40.803Z,10.20
2019-03-30T23:24:09.359Z,9.33
2019-03-30T23:26:37.820Z,9.53
2019-03-30T23:29:06.380Z,9.43
2019-03-30T23:31:34.925Z,10.83
2019-03-30T23:34:03.410Z,9.77
2019-03-30T23:36:31.942Z,9.93
2019-03-30T23:39:00.407Z,9.90
2019-03-30T23:41:28.943Z,9.43
2019-03-30T23:43:57.494Z,9.53
2019-03-30T23:46:25.978Z,9.90
2019-03-30T23:48:54.441Z,9.20
2019-03-30T23:51:22.948Z,9.20
2019-03-30T23:53:51.421Z,10.20
2019-03-30T23:56:21.331Z,9.53
2019-03-30T23:58:50.082Z,10.30
